Terminal Aerodrome Forecast
Issued by NWS Jackson, MS

Home | Current Version | Previous Version | Text Only | Print | Product List | Glossary On
Versions: 1 2 3 4 5 6 7 8 9 10 11 12 13 14 15
980
FTUS44 KJAN 201740
TAFGLH
TAF
KGLH 201740Z 2018/2118 20014G22KT P6SM SCT020
     FM210700 19007KT P6SM OVC025
     FM211200 13007KT 4SM BR OVC015
     FM211500 15010KT P6SM OVC015=

USA.gov is the U.S. government's official web portal to all federal, state and local government web resources and services.